sensor_id;sensor_type;location;lat;lon;timestamp;P1;durP1;ratioP1;P2;durP2;ratioP2
16101;SDS011;56411;52.964;10.540;2023-01-19T00:00:57;18.03;;;9.07;;
16101;SDS011;56411;52.964;10.540;2023-01-19T00:03:24;20.13;;;8.40;;
16101;SDS011;56411;52.964;10.540;2023-01-19T00:05:51;20.17;;;9.43;;
16101;SDS011;56411;52.964;10.540;2023-01-19T00:08:18;20.63;;;9.70;;
16101;SDS011;56411;52.964;10.540;2023-01-19T00:10:45;19.03;;;9.40;;
16101;SDS011;56411;52.964;10.540;2023-01-19T00:13:15;20.17;;;9.57;;
16101;SDS011;56411;52.964;10.540;2023-01-19T00:15:43;18.67;;;9.53;;
16101;SDS011;56411;52.964;10.540;2023-01-19T00:18:10;19.20;;;9.53;;
16101;SDS011;56411;52.964;10.540;2023-01-19T00:20:38;18.73;;;8.67;;
16101;SDS011;56411;52.964;10.540;2023-01-19T00:23:05;17.67;;;9.17;;
16101;SDS011;56411;52.964;10.540;2023-01-19T00:25:32;17.80;;;9.27;;
16101;SDS011;56411;52.964;10.540;2023-01-19T00:28:00;18.23;;;8.53;;
16101;SDS011;56411;52.964;10.540;2023-01-19T00:30:27;17.00;;;8.17;;
16101;SDS011;56411;52.964;10.540;2023-01-19T00:32:55;17.87;;;8.60;;
16101;SDS011;56411;52.964;10.540;2023-01-19T00:35:22;18.70;;;9.43;;
16101;SDS011;56411;52.964;10.540;2023-01-19T00:37:49;21.80;;;9.10;;
16101;SDS011;56411;52.964;10.540;2023-01-19T00:40:16;15.93;;;8.23;;
16101;SDS011;56411;52.964;10.540;2023-01-19T00:42:43;18.10;;;9.23;;
16101;SDS011;56411;52.964;10.540;2023-01-19T00:45:10;18.30;;;8.80;;
16101;SDS011;56411;52.964;10.540;2023-01-19T00:47:38;19.03;;;8.83;;
16101;SDS011;56411;52.964;10.540;2023-01-19T00:50:07;20.00;;;8.70;;
16101;SDS011;56411;52.964;10.540;2023-01-19T00:52:36;20.07;;;9.20;;
16101;SDS011;56411;52.964;10.540;2023-01-19T00:55:04;18.63;;;8.20;;
16101;SDS011;56411;52.964;10.540;2023-01-19T00:57:31;19.60;;;8.80;;
16101;SDS011;56411;52.964;10.540;2023-01-19T00:59:58;18.57;;;8.27;;
16101;SDS011;56411;52.964;10.540;2023-01-19T01:02:25;19.40;;;9.07;;
16101;SDS011;56411;52.964;10.540;2023-01-19T01:04:52;18.17;;;8.43;;
16101;SDS011;56411;52.964;10.540;2023-01-19T01:07:22;18.10;;;8.60;;
16101;SDS011;56411;52.964;10.540;2023-01-19T01:09:49;16.17;;;8.13;;
16101;SDS011;56411;52.964;10.540;2023-01-19T01:12:16;18.87;;;9.20;;
16101;SDS011;56411;52.964;10.540;2023-01-19T01:14:43;19.27;;;9.30;;
16101;SDS011;56411;52.964;10.540;2023-01-19T01:17:10;17.80;;;8.17;;
16101;SDS011;56411;52.964;10.540;2023-01-19T01:19:38;17.60;;;8.20;;
16101;SDS011;56411;52.964;10.540;2023-01-19T01:22:05;18.07;;;8.80;;
16101;SDS011;56411;52.964;10.540;2023-01-19T01:24:34;18.00;;;8.70;;
16101;SDS011;56411;52.964;10.540;2023-01-19T01:27:02;17.23;;;8.87;;
16101;SDS011;56411;52.964;10.540;2023-01-19T01:29:29;17.33;;;8.30;;
16101;SDS011;56411;52.964;10.540;2023-01-19T01:31:59;16.23;;;7.97;;
16101;SDS011;56411;52.964;10.540;2023-01-19T01:34:26;18.67;;;8.70;;
16101;SDS011;56411;52.964;10.540;2023-01-19T01:36:53;17.87;;;9.17;;
16101;SDS011;56411;52.964;10.540;2023-01-19T01:39:20;16.27;;;7.87;;
16101;SDS011;56411;52.964;10.540;2023-01-19T01:41:49;18.63;;;8.30;;
16101;SDS011;56411;52.964;10.540;2023-01-19T01:47:15;17.43;;;8.63;;
16101;SDS011;56411;52.964;10.540;2023-01-19T01:49:45;18.13;;;8.43;;
16101;SDS011;56411;52.964;10.540;2023-01-19T01:52:13;20.97;;;9.33;;
16101;SDS011;56411;52.964;10.540;2023-01-19T01:54:41;19.37;;;9.67;;
16101;SDS011;56411;52.964;10.540;2023-01-19T01:57:10;21.17;;;9.50;;
16101;SDS011;56411;52.964;10.540;2023-01-19T01:59:39;17.33;;;8.30;;
16101;SDS011;56411;52.964;10.540;2023-01-19T02:02:09;21.40;;;10.37;;
16101;SDS011;56411;52.964;10.540;2023-01-19T02:04:58;19.47;;;10.07;;
16101;SDS011;56411;52.964;10.540;2023-01-19T02:07:30;16.23;;;8.63;;
16101;SDS011;56411;52.964;10.540;2023-01-19T02:10:20;21.20;;;9.97;;
16101;SDS011;56411;52.964;10.540;2023-01-19T02:13:06;17.77;;;8.93;;
16101;SDS011;56411;52.964;10.540;2023-01-19T02:15:42;20.57;;;9.23;;
16101;SDS011;56411;52.964;10.540;2023-01-19T02:18:09;19.87;;;9.60;;
16101;SDS011;56411;52.964;10.540;2023-01-19T02:20:36;20.27;;;9.57;;
16101;SDS011;56411;52.964;10.540;2023-01-19T02:23:06;18.53;;;9.27;;
16101;SDS011;56411;52.964;10.540;2023-01-19T02:25:43;20.57;;;10.17;;
16101;SDS011;56411;52.964;10.540;2023-01-19T02:28:11;17.83;;;8.90;;
16101;SDS011;56411;52.964;10.540;2023-01-19T02:30:39;19.87;;;9.93;;
16101;SDS011;56411;52.964;10.540;2023-01-19T02:33:06;18.03;;;8.93;;
16101;SDS011;56411;52.964;10.540;2023-01-19T02:35:34;17.10;;;8.83;;
16101;SDS011;56411;52.964;10.540;2023-01-19T02:38:03;19.73;;;9.30;;
16101;SDS011;56411;52.964;10.540;2023-01-19T02:40:32;19.87;;;9.43;;
16101;SDS011;56411;52.964;10.540;2023-01-19T02:43:03;20.00;;;9.87;;
16101;SDS011;56411;52.964;10.540;2023-01-19T02:45:32;21.67;;;9.93;;
16101;SDS011;56411;52.964;10.540;2023-01-19T02:48:01;19.13;;;9.87;;
16101;SDS011;56411;52.964;10.540;2023-01-19T02:50:33;18.63;;;9.40;;
16101;SDS011;56411;52.964;10.540;2023-01-19T02:56:28;18.37;;;9.70;;
16101;SDS011;56411;52.964;10.540;2023-01-19T02:59:13;21.70;;;10.30;;
16101;SDS011;56411;52.964;10.540;2023-01-19T03:01:58;19.47;;;8.90;;
16101;SDS011;56411;52.964;10.540;2023-01-19T03:04:38;20.53;;;9.73;;
16101;SDS011;56411;52.964;10.540;2023-01-19T03:07:15;18.80;;;8.70;;
16101;SDS011;56411;52.964;10.540;2023-01-19T03:09:55;17.63;;;9.20;;
16101;SDS011;56411;52.964;10.540;2023-01-19T03:12:30;17.63;;;9.00;;
16101;SDS011;56411;52.964;10.540;2023-01-19T03:15:08;18.63;;;9.40;;
16101;SDS011;56411;52.964;10.540;2023-01-19T03:17:43;19.87;;;8.57;;
16101;SDS011;56411;52.964;10.540;2023-01-19T03:20:14;18.07;;;8.97;;
16101;SDS011;56411;52.964;10.540;2023-01-19T03:22:46;17.20;;;8.17;;
16101;SDS011;56411;52.964;10.540;2023-01-19T03:25:16;18.43;;;8.53;;
16101;SDS011;56411;52.964;10.540;2023-01-19T03:27:46;17.67;;;8.67;;
16101;SDS011;56411;52.964;10.540;2023-01-19T03:30:18;16.83;;;8.27;;
16101;SDS011;56411;52.964;10.540;2023-01-19T03:32:48;18.73;;;9.17;;
16101;SDS011;56411;52.964;10.540;2023-01-19T03:35:18;18.00;;;8.13;;
16101;SDS011;56411;52.964;10.540;2023-01-19T03:37:50;18.37;;;8.27;;
16101;SDS011;56411;52.964;10.540;2023-01-19T03:40:22;18.40;;;8.80;;
16101;SDS011;56411;52.964;10.540;2023-01-19T03:42:51;16.57;;;8.20;;
16101;SDS011;56411;52.964;10.540;2023-01-19T03:45:20;19.50;;;8.87;;
16101;SDS011;56411;52.964;10.540;2023-01-19T03:47:47;18.47;;;8.53;;
16101;SDS011;56411;52.964;10.540;2023-01-19T03:50:18;17.23;;;8.37;;
16101;SDS011;56411;52.964;10.540;2023-01-19T03:52:58;17.37;;;8.80;;
16101;SDS011;56411;52.964;10.540;2023-01-19T03:55:27;18.73;;;8.57;;
16101;SDS011;56411;52.964;10.540;2023-01-19T03:57:54;18.13;;;8.43;;
16101;SDS011;56411;52.964;10.540;2023-01-19T04:00:23;18.07;;;8.93;;
16101;SDS011;56411;52.964;10.540;2023-01-19T04:02:50;18.30;;;8.73;;
16101;SDS011;56411;52.964;10.540;2023-01-19T04:05:17;17.60;;;8.90;;
16101;SDS011;56411;52.964;10.540;2023-01-19T04:07:44;15.63;;;7.93;;
16101;SDS011;56411;52.964;10.540;2023-01-19T04:10:13;16.87;;;8.33;;
16101;SDS011;56411;52.964;10.540;2023-01-19T04:12:41;17.33;;;8.83;;
16101;SDS011;56411;52.964;10.540;2023-01-19T04:15:07;16.97;;;8.43;;
16101;SDS011;56411;52.964;10.540;2023-01-19T04:17:36;18.40;;;8.43;;
16101;SDS011;56411;52.964;10.540;2023-01-19T04:20:03;17.17;;;8.27;;
16101;SDS011;56411;52.964;10.540;2023-01-19T04:22:31;17.40;;;8.93;;
16101;SDS011;56411;52.964;10.540;2023-01-19T04:24:58;17.10;;;8.50;;
16101;SDS011;56411;52.964;10.540;2023-01-19T04:27:25;18.07;;;8.17;;
16101;SDS011;56411;52.964;10.540;2023-01-19T04:29:53;14.90;;;7.73;;
16101;SDS011;56411;52.964;10.540;2023-01-19T04:32:19;17.93;;;8.47;;
16101;SDS011;56411;52.964;10.540;2023-01-19T04:34:48;19.60;;;8.63;;
16101;SDS011;56411;52.964;10.540;2023-01-19T04:37:15;18.13;;;8.40;;
16101;SDS011;56411;52.964;10.540;2023-01-19T04:39:41;16.77;;;8.40;;
16101;SDS011;56411;52.964;10.540;2023-01-19T04:42:08;18.43;;;9.07;;
16101;SDS011;56411;52.964;10.540;2023-01-19T04:44:35;15.60;;;8.27;;
16101;SDS011;56411;52.964;10.540;2023-01-19T04:47:02;18.23;;;8.63;;
16101;SDS011;56411;52.964;10.540;2023-01-19T04:49:29;17.17;;;8.57;;
16101;SDS011;56411;52.964;10.540;2023-01-19T04:51:57;15.87;;;7.73;;
16101;SDS011;56411;52.964;10.540;2023-01-19T04:54:25;18.03;;;8.53;;
16101;SDS011;56411;52.964;10.540;2023-01-19T04:56:52;17.50;;;8.47;;
16101;SDS011;56411;52.964;10.540;2023-01-19T04:59:18;17.03;;;8.07;;
16101;SDS011;56411;52.964;10.540;2023-01-19T05:01:45;16.43;;;7.43;;
16101;SDS011;56411;52.964;10.540;2023-01-19T05:04:12;16.93;;;8.30;;
16101;SDS011;56411;52.964;10.540;2023-01-19T05:06:39;16.73;;;8.17;;
16101;SDS011;56411;52.964;10.540;2023-01-19T05:09:08;17.77;;;8.47;;
16101;SDS011;56411;52.964;10.540;2023-01-19T05:11:38;17.50;;;7.90;;
16101;SDS011;56411;52.964;10.540;2023-01-19T05:14:05;17.10;;;8.13;;
16101;SDS011;56411;52.964;10.540;2023-01-19T05:16:32;14.53;;;8.23;;
16101;SDS011;56411;52.964;10.540;2023-01-19T05:18:59;17.07;;;8.20;;
16101;SDS011;56411;52.964;10.540;2023-01-19T05:21:26;15.53;;;8.00;;
16101;SDS011;56411;52.964;10.540;2023-01-19T05:23:53;15.77;;;7.70;;
16101;SDS011;56411;52.964;10.540;2023-01-19T05:26:22;17.13;;;8.10;;
16101;SDS011;56411;52.964;10.540;2023-01-19T05:28:49;18.00;;;8.40;;
16101;SDS011;56411;52.964;10.540;2023-01-19T05:31:15;16.93;;;8.00;;
16101;SDS011;56411;52.964;10.540;2023-01-19T05:33:42;16.20;;;7.50;;
16101;SDS011;56411;52.964;10.540;2023-01-19T05:36:09;17.17;;;8.00;;
16101;SDS011;56411;52.964;10.540;2023-01-19T05:38:36;16.20;;;8.03;;
16101;SDS011;56411;52.964;10.540;2023-01-19T05:41:03;17.50;;;7.57;;
16101;SDS011;56411;52.964;10.540;2023-01-19T05:43:32;16.27;;;8.07;;
16101;SDS011;56411;52.964;10.540;2023-01-19T05:45:58;14.83;;;7.77;;
16101;SDS011;56411;52.964;10.540;2023-01-19T05:48:25;15.77;;;8.37;;
16101;SDS011;56411;52.964;10.540;2023-01-19T05:50:55;16.93;;;8.47;;
16101;SDS011;56411;52.964;10.540;2023-01-19T05:53:23;15.33;;;7.63;;
16101;SDS011;56411;52.964;10.540;2023-01-19T05:55:50;17.07;;;8.20;;
16101;SDS011;56411;52.964;10.540;2023-01-19T05:58:17;16.17;;;7.27;;
16101;SDS011;56411;52.964;10.540;2023-01-19T06:00:45;17.23;;;8.10;;
16101;SDS011;56411;52.964;10.540;2023-01-19T06:03:12;14.47;;;7.17;;
16101;SDS011;56411;52.964;10.540;2023-01-19T06:05:39;15.53;;;8.17;;
16101;SDS011;56411;52.964;10.540;2023-01-19T06:08:06;16.83;;;7.63;;
16101;SDS011;56411;52.964;10.540;2023-01-19T06:10:33;16.07;;;8.00;;
16101;SDS011;56411;52.964;10.540;2023-01-19T06:13:00;16.70;;;7.97;;
16101;SDS011;56411;52.964;10.540;2023-01-19T06:15:27;15.47;;;7.83;;
16101;SDS011;56411;52.964;10.540;2023-01-19T06:17:55;15.63;;;8.27;;
16101;SDS011;56411;52.964;10.540;2023-01-19T06:20:22;16.20;;;8.50;;
16101;SDS011;56411;52.964;10.540;2023-01-19T06:22:49;16.20;;;9.00;;
16101;SDS011;56411;52.964;10.540;2023-01-19T06:25:16;17.97;;;8.83;;
16101;SDS011;56411;52.964;10.540;2023-01-19T06:27:43;19.80;;;9.33;;
16101;SDS011;56411;52.964;10.540;2023-01-19T06:30:11;18.80;;;8.97;;
16101;SDS011;56411;52.964;10.540;2023-01-19T06:32:38;18.03;;;8.57;;
16101;SDS011;56411;52.964;10.540;2023-01-19T06:35:07;17.83;;;8.77;;
16101;SDS011;56411;52.964;10.540;2023-01-19T06:37:35;17.47;;;8.63;;
16101;SDS011;56411;52.964;10.540;2023-01-19T06:40:02;15.93;;;8.13;;
16101;SDS011;56411;52.964;10.540;2023-01-19T06:42:29;18.27;;;9.17;;
16101;SDS011;56411;52.964;10.540;2023-01-19T06:44:56;17.03;;;8.83;;
16101;SDS011;56411;52.964;10.540;2023-01-19T06:47:23;15.03;;;8.30;;
16101;SDS011;56411;52.964;10.540;2023-01-19T06:49:50;17.37;;;8.40;;
16101;SDS011;56411;52.964;10.540;2023-01-19T06:52:18;16.83;;;8.37;;
16101;SDS011;56411;52.964;10.540;2023-01-19T06:54:45;16.20;;;8.40;;
16101;SDS011;56411;52.964;10.540;2023-01-19T06:57:12;19.30;;;9.20;;
16101;SDS011;56411;52.964;10.540;2023-01-19T06:59:40;17.73;;;8.83;;
16101;SDS011;56411;52.964;10.540;2023-01-19T07:02:08;20.10;;;9.43;;
16101;SDS011;56411;52.964;10.540;2023-01-19T07:04:35;18.27;;;9.07;;
16101;SDS011;56411;52.964;10.540;2023-01-19T07:07:02;17.13;;;9.33;;
16101;SDS011;56411;52.964;10.540;2023-01-19T07:09:30;17.70;;;9.10;;
16101;SDS011;56411;52.964;10.540;2023-01-19T07:11:57;18.50;;;8.83;;
16101;SDS011;56411;52.964;10.540;2023-01-19T07:14:24;15.07;;;8.33;;
16101;SDS011;56411;52.964;10.540;2023-01-19T07:16:55;16.13;;;8.27;;
16101;SDS011;56411;52.964;10.540;2023-01-19T07:19:22;15.27;;;8.37;;
16101;SDS011;56411;52.964;10.540;2023-01-19T07:21:48;17.20;;;8.43;;
16101;SDS011;56411;52.964;10.540;2023-01-19T07:24:15;16.60;;;8.63;;
16101;SDS011;56411;52.964;10.540;2023-01-19T07:26:44;16.20;;;8.07;;
16101;SDS011;56411;52.964;10.540;2023-01-19T07:29:11;18.10;;;9.47;;
16101;SDS011;56411;52.964;10.540;2023-01-19T07:31:37;15.87;;;8.07;;
16101;SDS011;56411;52.964;10.540;2023-01-19T07:34:04;16.50;;;8.60;;
16101;SDS011;56411;52.964;10.540;2023-01-19T07:36:31;17.77;;;8.50;;
16101;SDS011;56411;52.964;10.540;2023-01-19T07:38:59;15.63;;;8.23;;
16101;SDS011;56411;52.964;10.540;2023-01-19T07:41:26;17.47;;;8.77;;
16101;SDS011;56411;52.964;10.540;2023-01-19T07:43:55;17.27;;;8.77;;
16101;SDS011;56411;52.964;10.540;2023-01-19T07:46:21;16.97;;;9.00;;
16101;SDS011;56411;52.964;10.540;2023-01-19T07:48:48;17.13;;;8.60;;
16101;SDS011;56411;52.964;10.540;2023-01-19T07:51:15;18.40;;;8.90;;
16101;SDS011;56411;52.964;10.540;2023-01-19T07:53:43;16.43;;;8.17;;
16101;SDS011;56411;52.964;10.540;2023-01-19T07:56:10;15.03;;;7.97;;
16101;SDS011;56411;52.964;10.540;2023-01-19T07:58:37;16.50;;;8.47;;
16101;SDS011;56411;52.964;10.540;2023-01-19T08:01:07;17.40;;;8.73;;
16101;SDS011;56411;52.964;10.540;2023-01-19T08:03:34;15.20;;;8.57;;
16101;SDS011;56411;52.964;10.540;2023-01-19T08:06:01;14.17;;;7.67;;
16101;SDS011;56411;52.964;10.540;2023-01-19T08:08:29;15.93;;;7.67;;
16101;SDS011;56411;52.964;10.540;2023-01-19T08:10:56;14.83;;;7.77;;
16101;SDS011;56411;52.964;10.540;2023-01-19T08:13:23;15.50;;;7.60;;
16101;SDS011;56411;52.964;10.540;2023-01-19T08:15:51;15.33;;;7.20;;
16101;SDS011;56411;52.964;10.540;2023-01-19T08:18:20;15.07;;;7.53;;
16101;SDS011;56411;52.964;10.540;2023-01-19T08:20:47;13.97;;;7.40;;
16101;SDS011;56411;52.964;10.540;2023-01-19T08:23:14;15.17;;;7.40;;
16101;SDS011;56411;52.964;10.540;2023-01-19T08:25:42;17.00;;;7.87;;
16101;SDS011;56411;52.964;10.540;2023-01-19T08:28:10;13.17;;;7.13;;
16101;SDS011;56411;52.964;10.540;2023-01-19T08:30:38;15.83;;;7.80;;
16101;SDS011;56411;52.964;10.540;2023-01-19T08:33:07;14.50;;;7.20;;
16101;SDS011;56411;52.964;10.540;2023-01-19T08:35:36;14.90;;;7.50;;
16101;SDS011;56411;52.964;10.540;2023-01-19T08:38:06;16.33;;;7.20;;
16101;SDS011;56411;52.964;10.540;2023-01-19T08:40:35;15.63;;;7.40;;
16101;SDS011;56411;52.964;10.540;2023-01-19T08:43:03;15.33;;;7.90;;
16101;SDS011;56411;52.964;10.540;2023-01-19T08:45:32;16.20;;;7.87;;
16101;SDS011;56411;52.964;10.540;2023-01-19T08:48:00;17.60;;;8.30;;
16101;SDS011;56411;52.964;10.540;2023-01-19T08:50:27;15.03;;;8.30;;
16101;SDS011;56411;52.964;10.540;2023-01-19T08:52:57;14.77;;;7.33;;
16101;SDS011;56411;52.964;10.540;2023-01-19T08:55:24;15.87;;;8.00;;
16101;SDS011;56411;52.964;10.540;2023-01-19T08:57:52;15.37;;;7.73;;
16101;SDS011;56411;52.964;10.540;2023-01-19T09:00:21;14.57;;;7.60;;
16101;SDS011;56411;52.964;10.540;2023-01-19T09:02:49;15.77;;;7.97;;
16101;SDS011;56411;52.964;10.540;2023-01-19T09:05:16;13.80;;;7.37;;
16101;SDS011;56411;52.964;10.540;2023-01-19T09:07:44;13.13;;;6.53;;
16101;SDS011;56411;52.964;10.540;2023-01-19T09:10:13;15.50;;;7.27;;
16101;SDS011;56411;52.964;10.540;2023-01-19T09:12:40;14.23;;;6.83;;
16101;SDS011;56411;52.964;10.540;2023-01-19T09:15:09;16.87;;;6.87;;
16101;SDS011;56411;52.964;10.540;2023-01-19T09:17:38;15.50;;;7.47;;
16101;SDS011;56411;52.964;10.540;2023-01-19T09:20:05;14.97;;;6.77;;
16101;SDS011;56411;52.964;10.540;2023-01-19T09:22:33;15.47;;;6.80;;
16101;SDS011;56411;52.964;10.540;2023-01-19T09:25:00;13.80;;;6.73;;
16101;SDS011;56411;52.964;10.540;2023-01-19T09:27:28;14.07;;;6.53;;
16101;SDS011;56411;52.964;10.540;2023-01-19T09:29:56;13.90;;;6.90;;
16101;SDS011;56411;52.964;10.540;2023-01-19T09:32:23;13.83;;;7.10;;
16101;SDS011;56411;52.964;10.540;2023-01-19T09:34:50;13.37;;;7.33;;
16101;SDS011;56411;52.964;10.540;2023-01-19T09:37:18;15.33;;;7.53;;
16101;SDS011;56411;52.964;10.540;2023-01-19T09:39:45;15.83;;;8.00;;
16101;SDS011;56411;52.964;10.540;2023-01-19T09:42:13;13.97;;;7.33;;
16101;SDS011;56411;52.964;10.540;2023-01-19T09:44:46;14.33;;;7.10;;
16101;SDS011;56411;52.964;10.540;2023-01-19T09:47:19;15.83;;;8.07;;
16101;SDS011;56411;52.964;10.540;2023-01-19T09:49:50;15.40;;;7.43;;
16101;SDS011;56411;52.964;10.540;2023-01-19T09:52:22;15.73;;;7.70;;
16101;SDS011;56411;52.964;10.540;2023-01-19T09:54:51;14.23;;;7.83;;
16101;SDS011;56411;52.964;10.540;2023-01-19T09:57:20;16.47;;;8.03;;
16101;SDS011;56411;52.964;10.540;2023-01-19T09:59:49;19.40;;;9.20;;
16101;SDS011;56411;52.964;10.540;2023-01-19T10:02:25;15.60;;;8.50;;
16101;SDS011;56411;52.964;10.540;2023-01-19T10:04:58;16.07;;;7.93;;
16101;SDS011;56411;52.964;10.540;2023-01-19T10:10:24;15.57;;;7.90;;
16101;SDS011;56411;52.964;10.540;2023-01-19T10:12:55;18.17;;;8.53;;
16101;SDS011;56411;52.964;10.540;2023-01-19T10:15:36;15.03;;;7.53;;
16101;SDS011;56411;52.964;10.540;2023-01-19T10:18:12;14.10;;;7.27;;
16101;SDS011;56411;52.964;10.540;2023-01-19T10:20:44;15.13;;;7.47;;
16101;SDS011;56411;52.964;10.540;2023-01-19T10:23:19;16.20;;;8.03;;
16101;SDS011;56411;52.964;10.540;2023-01-19T10:25:54;15.37;;;7.90;;
16101;SDS011;56411;52.964;10.540;2023-01-19T10:28:24;15.80;;;7.77;;
16101;SDS011;56411;52.964;10.540;2023-01-19T10:30:54;16.20;;;7.80;;
16101;SDS011;56411;52.964;10.540;2023-01-19T10:33:21;15.33;;;8.03;;
16101;SDS011;56411;52.964;10.540;2023-01-19T10:35:48;16.07;;;8.00;;
16101;SDS011;56411;52.964;10.540;2023-01-19T10:38:15;14.67;;;8.07;;
16101;SDS011;56411;52.964;10.540;2023-01-19T10:40:47;16.57;;;8.30;;
16101;SDS011;56411;52.964;10.540;2023-01-19T10:46:20;17.13;;;8.20;;
16101;SDS011;56411;52.964;10.540;2023-01-19T10:48:50;16.93;;;7.57;;
16101;SDS011;56411;52.964;10.540;2023-01-19T10:51:18;15.33;;;7.77;;
16101;SDS011;56411;52.964;10.540;2023-01-19T10:53:52;14.37;;;7.63;;
16101;SDS011;56411;52.964;10.540;2023-01-19T10:56:26;16.20;;;8.50;;
16101;SDS011;56411;52.964;10.540;2023-01-19T10:58:56;29.90;;;14.63;;
16101;SDS011;56411;52.964;10.540;2023-01-19T11:01:27;15.07;;;8.43;;
16101;SDS011;56411;52.964;10.540;2023-01-19T11:03:55;16.80;;;9.83;;
16101;SDS011;56411;52.964;10.540;2023-01-19T11:06:29;15.77;;;9.03;;
16101;SDS011;56411;52.964;10.540;2023-01-19T11:09:12;16.53;;;8.47;;
16101;SDS011;56411;52.964;10.540;2023-01-19T11:11:43;19.47;;;9.53;;
16101;SDS011;56411;52.964;10.540;2023-01-19T11:14:12;16.13;;;8.37;;
16101;SDS011;56411;52.964;10.540;2023-01-19T11:16:46;16.43;;;9.20;;
16101;SDS011;56411;52.964;10.540;2023-01-19T11:19:18;16.90;;;9.10;;
16101;SDS011;56411;52.964;10.540;2023-01-19T11:21:47;17.20;;;9.23;;
16101;SDS011;56411;52.964;10.540;2023-01-19T11:24:14;16.17;;;9.10;;
16101;SDS011;56411;52.964;10.540;2023-01-19T11:26:42;16.60;;;9.17;;
16101;SDS011;56411;52.964;10.540;2023-01-19T11:29:14;17.13;;;9.30;;
16101;SDS011;56411;52.964;10.540;2023-01-19T11:31:45;14.60;;;8.43;;
16101;SDS011;56411;52.964;10.540;2023-01-19T11:34:22;17.10;;;9.73;;
16101;SDS011;56411;52.964;10.540;2023-01-19T11:36:56;17.10;;;9.27;;
16101;SDS011;56411;52.964;10.540;2023-01-19T11:39:25;17.63;;;9.60;;
16101;SDS011;56411;52.964;10.540;2023-01-19T11:41:54;16.83;;;9.53;;
16101;SDS011;56411;52.964;10.540;2023-01-19T11:44:23;17.40;;;9.80;;
16101;SDS011;56411;52.964;10.540;2023-01-19T11:46:55;16.53;;;9.00;;
16101;SDS011;56411;52.964;10.540;2023-01-19T11:49:26;17.60;;;10.10;;
16101;SDS011;56411;52.964;10.540;2023-01-19T11:52:04;17.80;;;9.63;;
16101;SDS011;56411;52.964;10.540;2023-01-19T11:54:39;15.10;;;8.30;;
16101;SDS011;56411;52.964;10.540;2023-01-19T11:57:19;16.77;;;9.00;;
16101;SDS011;56411;52.964;10.540;2023-01-19T11:59:46;17.77;;;9.13;;
16101;SDS011;56411;52.964;10.540;2023-01-19T12:02:21;16.07;;;9.23;;
16101;SDS011;56411;52.964;10.540;2023-01-19T12:04:51;17.77;;;9.70;;
16101;SDS011;56411;52.964;10.540;2023-01-19T12:07:25;37.97;;;21.07;;
16101;SDS011;56411;52.964;10.540;2023-01-19T12:09:56;20.37;;;10.37;;
16101;SDS011;56411;52.964;10.540;2023-01-19T12:12:28;15.67;;;7.77;;
16101;SDS011;56411;52.964;10.540;2023-01-19T12:14:58;17.43;;;9.60;;
16101;SDS011;56411;52.964;10.540;2023-01-19T12:17:30;17.20;;;9.87;;
16101;SDS011;56411;52.964;10.540;2023-01-19T12:20:02;16.33;;;9.50;;
16101;SDS011;56411;52.964;10.540;2023-01-19T12:22:34;20.83;;;10.63;;
16101;SDS011;56411;52.964;10.540;2023-01-19T12:25:09;19.17;;;9.40;;
16101;SDS011;56411;52.964;10.540;2023-01-19T12:27:44;23.13;;;12.43;;
16101;SDS011;56411;52.964;10.540;2023-01-19T12:30:15;15.00;;;8.80;;
16101;SDS011;56411;52.964;10.540;2023-01-19T12:32:46;27.47;;;13.50;;
16101;SDS011;56411;52.964;10.540;2023-01-19T12:46:45;18.67;;;11.13;;
16101;SDS011;56411;52.964;10.540;2023-01-19T12:49:18;17.23;;;10.10;;
16101;SDS011;56411;52.964;10.540;2023-01-19T12:51:50;22.17;;;13.60;;
16101;SDS011;56411;52.964;10.540;2023-01-19T12:54:27;20.00;;;11.67;;
16101;SDS011;56411;52.964;10.540;2023-01-19T12:56:57;25.20;;;15.13;;
16101;SDS011;56411;52.964;10.540;2023-01-19T12:59:27;22.17;;;13.73;;
16101;SDS011;56411;52.964;10.540;2023-01-19T13:05:10;17.27;;;9.73;;
16101;SDS011;56411;52.964;10.540;2023-01-19T13:13:42;16.73;;;8.23;;
16101;SDS011;56411;52.964;10.540;2023-01-19T13:19:29;18.00;;;9.27;;
16101;SDS011;56411;52.964;10.540;2023-01-19T13:25:05;19.30;;;10.50;;
16101;SDS011;56411;52.964;10.540;2023-01-19T13:27:35;17.90;;;9.73;;
16101;SDS011;56411;52.964;10.540;2023-01-19T13:30:08;20.37;;;10.57;;
16101;SDS011;56411;52.964;10.540;2023-01-19T13:32:39;21.13;;;10.77;;
16101;SDS011;56411;52.964;10.540;2023-01-19T13:35:10;18.63;;;10.00;;
16101;SDS011;56411;52.964;10.540;2023-01-19T13:37:39;18.57;;;9.80;;
16101;SDS011;56411;52.964;10.540;2023-01-19T13:40:16;24.57;;;13.10;;
16101;SDS011;56411;52.964;10.540;2023-01-19T13:42:45;24.53;;;13.60;;
16101;SDS011;56411;52.964;10.540;2023-01-19T13:45:15;21.87;;;12.70;;
16101;SDS011;56411;52.964;10.540;2023-01-19T13:47:51;23.77;;;13.57;;
16101;SDS011;56411;52.964;10.540;2023-01-19T13:50:20;24.70;;;13.10;;
16101;SDS011;56411;52.964;10.540;2023-01-19T13:52:48;24.67;;;13.23;;
16101;SDS011;56411;52.964;10.540;2023-01-19T13:55:19;22.23;;;12.13;;
16101;SDS011;56411;52.964;10.540;2023-01-19T13:57:47;24.20;;;13.50;;
16101;SDS011;56411;52.964;10.540;2023-01-19T14:00:15;27.37;;;14.47;;
16101;SDS011;56411;52.964;10.540;2023-01-19T14:02:51;25.33;;;14.07;;
16101;SDS011;56411;52.964;10.540;2023-01-19T14:05:24;27.33;;;14.13;;
16101;SDS011;56411;52.964;10.540;2023-01-19T14:08:03;26.00;;;13.50;;
16101;SDS011;56411;52.964;10.540;2023-01-19T14:10:38;20.67;;;12.07;;
16101;SDS011;56411;52.964;10.540;2023-01-19T14:13:11;24.87;;;13.83;;
16101;SDS011;56411;52.964;10.540;2023-01-19T14:15:40;33.93;;;20.53;;
16101;SDS011;56411;52.964;10.540;2023-01-19T14:18:08;27.03;;;16.93;;
16101;SDS011;56411;52.964;10.540;2023-01-19T14:20:37;31.03;;;20.47;;
16101;SDS011;56411;52.964;10.540;2023-01-19T14:23:04;32.73;;;19.10;;
16101;SDS011;56411;52.964;10.540;2023-01-19T14:25:32;31.43;;;18.43;;
16101;SDS011;56411;52.964;10.540;2023-01-19T14:31:15;24.47;;;14.23;;
16101;SDS011;56411;52.964;10.540;2023-01-19T14:33:45;23.67;;;12.93;;
16101;SDS011;56411;52.964;10.540;2023-01-19T14:36:24;24.33;;;14.23;;
16101;SDS011;56411;52.964;10.540;2023-01-19T14:38:54;22.67;;;12.17;;
16101;SDS011;56411;52.964;10.540;2023-01-19T14:41:25;23.27;;;12.70;;
16101;SDS011;56411;52.964;10.540;2023-01-19T14:44:00;23.07;;;13.30;;
16101;SDS011;56411;52.964;10.540;2023-01-19T14:46:27;23.67;;;12.03;;
16101;SDS011;56411;52.964;10.540;2023-01-19T14:48:56;23.07;;;13.13;;
16101;SDS011;56411;52.964;10.540;2023-01-19T14:51:27;23.50;;;13.23;;
16101;SDS011;56411;52.964;10.540;2023-01-19T14:53:55;29.20;;;14.23;;
16101;SDS011;56411;52.964;10.540;2023-01-19T14:56:25;25.17;;;13.90;;
16101;SDS011;56411;52.964;10.540;2023-01-19T14:58:55;22.67;;;13.13;;
16101;SDS011;56411;52.964;10.540;2023-01-19T15:01:24;27.17;;;14.70;;
16101;SDS011;56411;52.964;10.540;2023-01-19T15:03:53;23.77;;;12.93;;
16101;SDS011;56411;52.964;10.540;2023-01-19T15:06:22;26.43;;;13.07;;
16101;SDS011;56411;52.964;10.540;2023-01-19T15:08:50;21.77;;;12.43;;
16101;SDS011;56411;52.964;10.540;2023-01-19T15:11:20;23.50;;;12.70;;
16101;SDS011;56411;52.964;10.540;2023-01-19T15:13:48;24.03;;;12.60;;